sensor_id;sensor_type;location;lat;lon;timestamp;temperature;humidity
41469;DHT22;27206;47.032;15.484;2023-11-21T00:00:09;5.00;99.90
41469;DHT22;27206;47.032;15.484;2023-11-21T00:02:38;4.90;99.90
41469;DHT22;27206;47.032;15.484;2023-11-21T00:05:09;4.90;99.90
41469;DHT22;27206;47.032;15.484;2023-11-21T00:07:36;4.80;99.90
41469;DHT22;27206;47.032;15.484;2023-11-21T00:10:02;4.80;99.90
41469;DHT22;27206;47.032;15.484;2023-11-21T00:12:28;4.70;99.90
41469;DHT22;27206;47.032;15.484;2023-11-21T00:14:55;4.70;99.90
41469;DHT22;27206;47.032;15.484;2023-11-21T00:17:20;4.80;99.90
41469;DHT22;27206;47.032;15.484;2023-11-21T00:19:46;4.70;99.90
41469;DHT22;27206;47.032;15.484;2023-11-21T00:22:12;4.80;99.90
41469;DHT22;27206;47.032;15.484;2023-11-21T00:24:37;4.80;99.90
41469;DHT22;27206;47.032;15.484;2023-11-21T00:27:03;4.80;99.90
41469;DHT22;27206;47.032;15.484;2023-11-21T00:29:29;4.80;99.90
41469;DHT22;27206;47.032;15.484;2023-11-21T00:31:54;4.80;99.90
41469;DHT22;27206;47.032;15.484;2023-11-21T00:34:20;4.70;99.90
41469;DHT22;27206;47.032;15.484;2023-11-21T00:36:46;4.70;99.90
41469;DHT22;27206;47.032;15.484;2023-11-21T00:39:11;4.70;99.90
41469;DHT22;27206;47.032;15.484;2023-11-21T00:41:37;4.80;99.90
41469;DHT22;27206;47.032;15.484;2023-11-21T00:44:03;4.80;99.90
41469;DHT22;27206;47.032;15.484;2023-11-21T00:46:29;4.80;99.90
41469;DHT22;27206;47.032;15.484;2023-11-21T00:48:55;4.80;99.90
41469;DHT22;27206;47.032;15.484;2023-11-21T00:51:21;4.80;99.90
41469;DHT22;27206;47.032;15.484;2023-11-21T00:53:47;4.80;99.90
41469;DHT22;27206;47.032;15.484;2023-11-21T00:56:13;4.80;99.90
41469;DHT22;27206;47.032;15.484;2023-11-21T00:58:39;4.70;99.90
41469;DHT22;27206;47.032;15.484;2023-11-21T01:01:09;4.80;99.90
41469;DHT22;27206;47.032;15.484;2023-11-21T01:03:35;4.80;99.90
41469;DHT22;27206;47.032;15.484;2023-11-21T01:06:01;4.80;99.90
41469;DHT22;27206;47.032;15.484;2023-11-21T01:08:26;4.80;99.90
41469;DHT22;27206;47.032;15.484;2023-11-21T01:10:52;4.80;99.90
41469;DHT22;27206;47.032;15.484;2023-11-21T01:13:18;4.80;99.90
41469;DHT22;27206;47.032;15.484;2023-11-21T01:15:43;4.90;99.90
41469;DHT22;27206;47.032;15.484;2023-11-21T01:18:09;4.80;99.90
41469;DHT22;27206;47.032;15.484;2023-11-21T01:20:35;4.80;99.90
41469;DHT22;27206;47.032;15.484;2023-11-21T01:23:00;4.90;99.90
41469;DHT22;27206;47.032;15.484;2023-11-21T01:25:26;5.00;99.90
41469;DHT22;27206;47.032;15.484;2023-11-21T01:27:52;5.00;99.90
41469;DHT22;27206;47.032;15.484;2023-11-21T01:30:18;5.00;99.90
41469;DHT22;27206;47.032;15.484;2023-11-21T01:32:43;5.00;99.90
41469;DHT22;27206;47.032;15.484;2023-11-21T01:35:10;4.90;99.90
41469;DHT22;27206;47.032;15.484;2023-11-21T01:37:36;4.80;99.90
41469;DHT22;27206;47.032;15.484;2023-11-21T01:40:03;4.80;99.90
41469;DHT22;27206;47.032;15.484;2023-11-21T01:42:31;4.90;99.90
41469;DHT22;27206;47.032;15.484;2023-11-21T01:44:56;5.00;99.90
41469;DHT22;27206;47.032;15.484;2023-11-21T01:47:22;5.10;99.90
41469;DHT22;27206;47.032;15.484;2023-11-21T01:49:48;5.10;99.90
41469;DHT22;27206;47.032;15.484;2023-11-21T01:52:14;5.10;99.90
41469;DHT22;27206;47.032;15.484;2023-11-21T01:54:41;5.10;99.90
41469;DHT22;27206;47.032;15.484;2023-11-21T01:57:06;5.10;99.90
41469;DHT22;27206;47.032;15.484;2023-11-21T01:59:36;5.10;99.90
41469;DHT22;27206;47.032;15.484;2023-11-21T02:02:04;5.20;99.90
41469;DHT22;27206;47.032;15.484;2023-11-21T02:04:34;5.20;99.90
41469;DHT22;27206;47.032;15.484;2023-11-21T02:07:02;5.30;99.90
41469;DHT22;27206;47.032;15.484;2023-11-21T02:09:31;5.40;99.90
41469;DHT22;27206;47.032;15.484;2023-11-21T02:11:58;5.40;99.90
41469;DHT22;27206;47.032;15.484;2023-11-21T02:14:25;5.50;99.90
41469;DHT22;27206;47.032;15.484;2023-11-21T02:16:53;5.50;99.90
41469;DHT22;27206;47.032;15.484;2023-11-21T02:19:20;5.60;99.90
41469;DHT22;27206;47.032;15.484;2023-11-21T02:21:50;5.60;99.90
41469;DHT22;27206;47.032;15.484;2023-11-21T02:24:19;5.60;99.90
41469;DHT22;27206;47.032;15.484;2023-11-21T02:26:45;5.70;99.90
41469;DHT22;27206;47.032;15.484;2023-11-21T02:29:11;5.70;99.90
41469;DHT22;27206;47.032;15.484;2023-11-21T02:31:39;5.70;99.90
41469;DHT22;27206;47.032;15.484;2023-11-21T02:34:16;5.70;99.90
41469;DHT22;27206;47.032;15.484;2023-11-21T02:36:44;5.70;99.90
41469;DHT22;27206;47.032;15.484;2023-11-21T02:39:10;5.70;99.90
41469;DHT22;27206;47.032;15.484;2023-11-21T02:41:39;5.70;99.90
41469;DHT22;27206;47.032;15.484;2023-11-21T02:44:06;5.70;99.90
41469;DHT22;27206;47.032;15.484;2023-11-21T02:46:36;5.80;99.90
41469;DHT22;27206;47.032;15.484;2023-11-21T02:49:02;5.70;99.90
41469;DHT22;27206;47.032;15.484;2023-11-21T02:51:28;5.80;99.90
41469;DHT22;27206;47.032;15.484;2023-11-21T02:53:54;5.90;99.90
41469;DHT22;27206;47.032;15.484;2023-11-21T02:56:24;5.90;99.90
41469;DHT22;27206;47.032;15.484;2023-11-21T02:58:50;6.00;99.90
41469;DHT22;27206;47.032;15.484;2023-11-21T03:01:15;6.00;99.90
41469;DHT22;27206;47.032;15.484;2023-11-21T03:03:42;6.00;99.90
41469;DHT22;27206;47.032;15.484;2023-11-21T03:06:07;6.00;99.90
41469;DHT22;27206;47.032;15.484;2023-11-21T03:08:34;5.90;99.90
41469;DHT22;27206;47.032;15.484;2023-11-21T03:11:00;5.90;99.90
41469;DHT22;27206;47.032;15.484;2023-11-21T03:13:25;5.90;99.90
41469;DHT22;27206;47.032;15.484;2023-11-21T03:15:51;5.90;99.90
41469;DHT22;27206;47.032;15.484;2023-11-21T03:18:17;5.90;99.90
41469;DHT22;27206;47.032;15.484;2023-11-21T03:20:43;5.90;99.90
41469;DHT22;27206;47.032;15.484;2023-11-21T03:23:11;6.00;99.90
41469;DHT22;27206;47.032;15.484;2023-11-21T03:25:37;6.00;99.90
41469;DHT22;27206;47.032;15.484;2023-11-21T03:28:03;6.00;99.90
41469;DHT22;27206;47.032;15.484;2023-11-21T03:30:29;6.00;99.90
41469;DHT22;27206;47.032;15.484;2023-11-21T03:32:54;5.90;99.90
41469;DHT22;27206;47.032;15.484;2023-11-21T03:35:20;5.90;99.90
41469;DHT22;27206;47.032;15.484;2023-11-21T03:37:46;6.00;99.90
41469;DHT22;27206;47.032;15.484;2023-11-21T03:40:12;6.00;99.90
41469;DHT22;27206;47.032;15.484;2023-11-21T03:42:38;6.00;99.90
41469;DHT22;27206;47.032;15.484;2023-11-21T03:45:05;6.10;99.90
41469;DHT22;27206;47.032;15.484;2023-11-21T03:47:31;6.00;99.90
41469;DHT22;27206;47.032;15.484;2023-11-21T03:49:57;6.10;99.90
41469;DHT22;27206;47.032;15.484;2023-11-21T03:52:23;6.00;99.90
41469;DHT22;27206;47.032;15.484;2023-11-21T03:54:49;6.00;99.90
41469;DHT22;27206;47.032;15.484;2023-11-21T03:57:15;6.10;99.90
41469;DHT22;27206;47.032;15.484;2023-11-21T03:59:41;6.10;99.90
41469;DHT22;27206;47.032;15.484;2023-11-21T04:02:07;6.10;99.90
41469;DHT22;27206;47.032;15.484;2023-11-21T04:04:33;6.00;99.90
41469;DHT22;27206;47.032;15.484;2023-11-21T04:06:59;6.00;99.90
41469;DHT22;27206;47.032;15.484;2023-11-21T04:09:25;6.00;99.90
41469;DHT22;27206;47.032;15.484;2023-11-21T04:11:53;6.10;99.90
41469;DHT22;27206;47.032;15.484;2023-11-21T04:14:19;6.00;99.90
41469;DHT22;27206;47.032;15.484;2023-11-21T04:16:45;6.00;99.90
41469;DHT22;27206;47.032;15.484;2023-11-21T04:19:11;6.00;99.90
41469;DHT22;27206;47.032;15.484;2023-11-21T04:21:40;6.00;99.90
41469;DHT22;27206;47.032;15.484;2023-11-21T04:24:06;6.00;99.90
41469;DHT22;27206;47.032;15.484;2023-11-21T04:26:32;6.10;99.90
41469;DHT22;27206;47.032;15.484;2023-11-21T04:28:57;6.00;99.90
41469;DHT22;27206;47.032;15.484;2023-11-21T04:31:23;6.00;99.90
41469;DHT22;27206;47.032;15.484;2023-11-21T04:33:49;6.00;99.90
41469;DHT22;27206;47.032;15.484;2023-11-21T04:36:14;6.00;99.90
41469;DHT22;27206;47.032;15.484;2023-11-21T04:38:40;6.00;99.90
41469;DHT22;27206;47.032;15.484;2023-11-21T04:41:06;6.10;99.90
41469;DHT22;27206;47.032;15.484;2023-11-21T04:43:32;6.00;99.90
41469;DHT22;27206;47.032;15.484;2023-11-21T04:45:57;6.00;99.90
41469;DHT22;27206;47.032;15.484;2023-11-21T04:48:23;6.10;99.90
41469;DHT22;27206;47.032;15.484;2023-11-21T04:50:48;6.10;99.90
41469;DHT22;27206;47.032;15.484;2023-11-21T04:53:14;6.10;99.90
41469;DHT22;27206;47.032;15.484;2023-11-21T04:55:43;6.10;99.90
41469;DHT22;27206;47.032;15.484;2023-11-21T04:58:09;6.10;99.90
41469;DHT22;27206;47.032;15.484;2023-11-21T05:00:35;6.10;99.90
41469;DHT22;27206;47.032;15.484;2023-11-21T05:03:02;6.10;99.90
41469;DHT22;27206;47.032;15.484;2023-11-21T05:05:28;6.20;99.90
41469;DHT22;27206;47.032;15.484;2023-11-21T05:07:55;6.10;99.90
41469;DHT22;27206;47.032;15.484;2023-11-21T05:10:21;6.10;99.90
41469;DHT22;27206;47.032;15.484;2023-11-21T05:12:48;6.10;99.90
41469;DHT22;27206;47.032;15.484;2023-11-21T05:15:15;6.10;99.90
41469;DHT22;27206;47.032;15.484;2023-11-21T05:17:43;6.10;99.90
41469;DHT22;27206;47.032;15.484;2023-11-21T05:20:13;6.20;99.90
41469;DHT22;27206;47.032;15.484;2023-11-21T05:22:42;6.20;99.90
41469;DHT22;27206;47.032;15.484;2023-11-21T05:25:08;6.20;99.90
41469;DHT22;27206;47.032;15.484;2023-11-21T05:27:35;6.10;99.90
41469;DHT22;27206;47.032;15.484;2023-11-21T05:30:05;6.00;99.90
41469;DHT22;27206;47.032;15.484;2023-11-21T05:32:34;6.10;99.90
41469;DHT22;27206;47.032;15.484;2023-11-21T05:35:00;6.10;99.90
41469;DHT22;27206;47.032;15.484;2023-11-21T05:37:26;6.10;99.90
41469;DHT22;27206;47.032;15.484;2023-11-21T05:39:55;6.10;99.90
41469;DHT22;27206;47.032;15.484;2023-11-21T05:42:25;6.00;99.90
41469;DHT22;27206;47.032;15.484;2023-11-21T05:44:50;5.90;99.90
41469;DHT22;27206;47.032;15.484;2023-11-21T05:47:16;6.00;99.90
41469;DHT22;27206;47.032;15.484;2023-11-21T05:49:42;6.00;99.90
41469;DHT22;27206;47.032;15.484;2023-11-21T05:52:08;6.10;99.90
41469;DHT22;27206;47.032;15.484;2023-11-21T05:54:33;6.00;99.90
41469;DHT22;27206;47.032;15.484;2023-11-21T05:56:59;6.00;99.90
41469;DHT22;27206;47.032;15.484;2023-11-21T05:59:25;5.90;99.90
41469;DHT22;27206;47.032;15.484;2023-11-21T06:01:51;5.90;99.90
41469;DHT22;27206;47.032;15.484;2023-11-21T06:04:17;6.00;99.90
41469;DHT22;27206;47.032;15.484;2023-11-21T06:06:43;6.10;99.90
41469;DHT22;27206;47.032;15.484;2023-11-21T06:09:09;5.90;99.90
41469;DHT22;27206;47.032;15.484;2023-11-21T06:11:35;5.90;99.90
41469;DHT22;27206;47.032;15.484;2023-11-21T06:14:01;5.90;99.90
41469;DHT22;27206;47.032;15.484;2023-11-21T06:16:27;6.00;99.90
41469;DHT22;27206;47.032;15.484;2023-11-21T06:18:53;6.10;99.90
41469;DHT22;27206;47.032;15.484;2023-11-21T06:21:19;6.00;99.90
41469;DHT22;27206;47.032;15.484;2023-11-21T06:23:44;6.00;99.90
41469;DHT22;27206;47.032;15.484;2023-11-21T06:26:10;6.10;99.90
41469;DHT22;27206;47.032;15.484;2023-11-21T06:28:36;6.10;99.90
41469;DHT22;27206;47.032;15.484;2023-11-21T06:31:02;6.20;99.90
41469;DHT22;27206;47.032;15.484;2023-11-21T06:33:33;6.10;99.90
41469;DHT22;27206;47.032;15.484;2023-11-21T06:35:59;6.10;99.90
41469;DHT22;27206;47.032;15.484;2023-11-21T06:38:28;6.10;99.90
41469;DHT22;27206;47.032;15.484;2023-11-21T06:40:56;6.10;99.90
41469;DHT22;27206;47.032;15.484;2023-11-21T06:43:23;6.10;99.90
41469;DHT22;27206;47.032;15.484;2023-11-21T06:45:49;6.00;99.90
41469;DHT22;27206;47.032;15.484;2023-11-21T06:48:14;6.10;99.90
41469;DHT22;27206;47.032;15.484;2023-11-21T06:50:40;6.20;99.90
41469;DHT22;27206;47.032;15.484;2023-11-21T06:53:07;6.10;99.90
41469;DHT22;27206;47.032;15.484;2023-11-21T06:55:33;6.20;99.90
41469;DHT22;27206;47.032;15.484;2023-11-21T06:57:59;6.20;99.90
41469;DHT22;27206;47.032;15.484;2023-11-21T07:00:25;6.20;99.90
41469;DHT22;27206;47.032;15.484;2023-11-21T07:02:54;6.20;99.90
41469;DHT22;27206;47.032;15.484;2023-11-21T07:05:21;6.30;99.90
41469;DHT22;27206;47.032;15.484;2023-11-21T07:07:48;6.40;99.90
41469;DHT22;27206;47.032;15.484;2023-11-21T07:10:14;6.30;99.90
41469;DHT22;27206;47.032;15.484;2023-11-21T07:12:40;6.20;99.90
41469;DHT22;27206;47.032;15.484;2023-11-21T07:15:06;6.30;99.90
41469;DHT22;27206;47.032;15.484;2023-11-21T07:17:35;6.30;99.90
41469;DHT22;27206;47.032;15.484;2023-11-21T07:20:01;6.40;99.90
41469;DHT22;27206;47.032;15.484;2023-11-21T07:22:27;6.50;99.90
41469;DHT22;27206;47.032;15.484;2023-11-21T07:24:53;6.50;99.90
41469;DHT22;27206;47.032;15.484;2023-11-21T07:27:18;6.50;99.90
41469;DHT22;27206;47.032;15.484;2023-11-21T07:29:44;6.60;99.90
41469;DHT22;27206;47.032;15.484;2023-11-21T07:32:10;6.60;99.90
41469;DHT22;27206;47.032;15.484;2023-11-21T07:34:36;6.50;99.90
41469;DHT22;27206;47.032;15.484;2023-11-21T07:37:02;6.50;99.90
41469;DHT22;27206;47.032;15.484;2023-11-21T07:39:28;6.60;99.90
41469;DHT22;27206;47.032;15.484;2023-11-21T07:41:55;6.70;99.90
41469;DHT22;27206;47.032;15.484;2023-11-21T07:44:20;6.70;99.90
41469;DHT22;27206;47.032;15.484;2023-11-21T07:46:47;6.70;99.90
41469;DHT22;27206;47.032;15.484;2023-11-21T07:49:15;6.80;99.90
41469;DHT22;27206;47.032;15.484;2023-11-21T07:51:43;6.80;99.90
41469;DHT22;27206;47.032;15.484;2023-11-21T07:54:09;6.90;99.90
41469;DHT22;27206;47.032;15.484;2023-11-21T07:56:35;7.10;99.90
41469;DHT22;27206;47.032;15.484;2023-11-21T07:59:01;7.10;99.90
41469;DHT22;27206;47.032;15.484;2023-11-21T08:01:26;7.20;99.90
41469;DHT22;27206;47.032;15.484;2023-11-21T08:03:53;7.10;99.90
41469;DHT22;27206;47.032;15.484;2023-11-21T08:06:23;7.20;99.90
41469;DHT22;27206;47.032;15.484;2023-11-21T08:08:49;7.30;99.90
41469;DHT22;27206;47.032;15.484;2023-11-21T08:11:14;7.40;99.90
41469;DHT22;27206;47.032;15.484;2023-11-21T08:13:40;7.40;99.90
41469;DHT22;27206;47.032;15.484;2023-11-21T08:16:06;7.40;99.90
41469;DHT22;27206;47.032;15.484;2023-11-21T08:18:32;7.50;99.90
41469;DHT22;27206;47.032;15.484;2023-11-21T08:20:59;7.50;99.90
41469;DHT22;27206;47.032;15.484;2023-11-21T08:23:26;7.50;99.90
41469;DHT22;27206;47.032;15.484;2023-11-21T08:25:52;7.70;99.90
41469;DHT22;27206;47.032;15.484;2023-11-21T08:28:18;7.70;99.90
41469;DHT22;27206;47.032;15.484;2023-11-21T08:30:44;7.80;99.90
41469;DHT22;27206;47.032;15.484;2023-11-21T08:33:10;8.00;99.90
41469;DHT22;27206;47.032;15.484;2023-11-21T08:35:39;7.90;99.90
41469;DHT22;27206;47.032;15.484;2023-11-21T08:38:05;7.90;99.90
41469;DHT22;27206;47.032;15.484;2023-11-21T08:40:31;8.10;99.90
41469;DHT22;27206;47.032;15.484;2023-11-21T08:42:57;8.10;99.90
41469;DHT22;27206;47.032;15.484;2023-11-21T08:45:25;8.20;99.90
41469;DHT22;27206;47.032;15.484;2023-11-21T08:47:56;8.40;99.90
41469;DHT22;27206;47.032;15.484;2023-11-21T08:50:22;8.40;99.90
41469;DHT22;27206;47.032;15.484;2023-11-21T08:52:48;8.50;99.90
41469;DHT22;27206;47.032;15.484;2023-11-21T08:55:14;8.50;99.90
41469;DHT22;27206;47.032;15.484;2023-11-21T08:57:41;8.60;99.90
41469;DHT22;27206;47.032;15.484;2023-11-21T09:00:09;8.70;99.90
41469;DHT22;27206;47.032;15.484;2023-11-21T09:02:40;8.80;99.90
41469;DHT22;27206;47.032;15.484;2023-11-21T09:05:09;8.90;99.90
41469;DHT22;27206;47.032;15.484;2023-11-21T09:07:36;9.00;99.90
41469;DHT22;27206;47.032;15.484;2023-11-21T09:10:02;9.00;99.90
41469;DHT22;27206;47.032;15.484;2023-11-21T09:12:28;9.00;99.90
41469;DHT22;27206;47.032;15.484;2023-11-21T09:14:54;9.20;99.90
41469;DHT22;27206;47.032;15.484;2023-11-21T09:17:20;9.10;99.90
41469;DHT22;27206;47.032;15.484;2023-11-21T09:19:45;9.30;99.90
41469;DHT22;27206;47.032;15.484;2023-11-21T09:22:15;9.30;99.90
41469;DHT22;27206;47.032;15.484;2023-11-21T09:24:41;9.50;99.90
41469;DHT22;27206;47.032;15.484;2023-11-21T09:27:08;9.50;99.90
41469;DHT22;27206;47.032;15.484;2023-11-21T09:29:35;9.50;99.90
41469;DHT22;27206;47.032;15.484;2023-11-21T09:32:00;9.60;99.90
41469;DHT22;27206;47.032;15.484;2023-11-21T09:34:27;9.60;99.90
41469;DHT22;27206;47.032;15.484;2023-11-21T09:36:52;9.60;99.90
41469;DHT22;27206;47.032;15.484;2023-11-21T09:39:19;9.60;99.90
41469;DHT22;27206;47.032;15.484;2023-11-21T09:41:52;9.60;99.90
41469;DHT22;27206;47.032;15.484;2023-11-21T09:44:55;9.70;99.90
41469;DHT22;27206;47.032;15.484;2023-11-21T09:47:24;9.70;99.90
41469;DHT22;27206;47.032;15.484;2023-11-21T09:49:50;9.70;99.90
41469;DHT22;27206;47.032;15.484;2023-11-21T09:52:25;9.60;99.90
41469;DHT22;27206;47.032;15.484;2023-11-21T09:54:52;9.70;99.90
41469;DHT22;27206;47.032;15.484;2023-11-21T09:57:23;9.60;99.90
41469;DHT22;27206;47.032;15.484;2023-11-21T09:59:51;9.60;99.90
41469;DHT22;27206;47.032;15.484;2023-11-21T10:02:22;9.50;99.90
41469;DHT22;27206;47.032;15.484;2023-11-21T10:04:48;9.60;99.90
41469;DHT22;27206;47.032;15.484;2023-11-21T10:07:13;9.60;99.90
41469;DHT22;27206;47.032;15.484;2023-11-21T10:09:41;9.60;99.90
41469;DHT22;27206;47.032;15.484;2023-11-21T10:12:07;9.60;99.90
41469;DHT22;27206;47.032;15.484;2023-11-21T10:14:37;9.60;99.90
41469;DHT22;27206;47.032;15.484;2023-11-21T10:17:07;9.50;99.90
41469;DHT22;27206;47.032;15.484;2023-11-21T10:19:35;9.50;99.90
41469;DHT22;27206;47.032;15.484;2023-11-21T10:22:02;9.50;99.90
41469;DHT22;27206;47.032;15.484;2023-11-21T10:24:29;9.50;99.90
41469;DHT22;27206;47.032;15.484;2023-11-21T10:26:54;9.40;99.90
41469;DHT22;27206;47.032;15.484;2023-11-21T10:29:20;9.40;99.90
41469;DHT22;27206;47.032;15.484;2023-11-21T10:31:50;9.40;99.90
41469;DHT22;27206;47.032;15.484;2023-11-21T10:34:17;9.50;99.90
41469;DHT22;27206;47.032;15.484;2023-11-21T10:36:43;9.40;99.90
41469;DHT22;27206;47.032;15.484;2023-11-21T10:39:09;9.50;99.90
41469;DHT22;27206;47.032;15.484;2023-11-21T10:41:38;9.40;99.90
41469;DHT22;27206;47.032;15.484;2023-11-21T10:44:05;9.40;99.90
41469;DHT22;27206;47.032;15.484;2023-11-21T10:46:37;9.50;99.90
41469;DHT22;27206;47.032;15.484;2023-11-21T10:49:04;9.40;99.90
41469;DHT22;27206;47.032;15.484;2023-11-21T10:51:29;9.40;99.90
41469;DHT22;27206;47.032;15.484;2023-11-21T10:53:55;9.30;99.90
41469;DHT22;27206;47.032;15.484;2023-11-21T10:56:23;9.40;99.90
41469;DHT22;27206;47.032;15.484;2023-11-21T10:58:50;9.40;99.90
41469;DHT22;27206;47.032;15.484;2023-11-21T11:01:19;9.40;99.90
41469;DHT22;27206;47.032;15.484;2023-11-21T11:03:50;9.50;99.90
41469;DHT22;27206;47.032;15.484;2023-11-21T11:06:16;9.50;99.90
41469;DHT22;27206;47.032;15.484;2023-11-21T11:08:42;9.50;99.90
41469;DHT22;27206;47.032;15.484;2023-11-21T11:11:09;9.60;99.90
41469;DHT22;27206;47.032;15.484;2023-11-21T11:13:37;9.50;99.90
41469;DHT22;27206;47.032;15.484;2023-11-21T11:16:03;9.50;99.90
41469;DHT22;27206;47.032;15.484;2023-11-21T11:18:33;9.60;99.90
41469;DHT22;27206;47.032;15.484;2023-11-21T11:21:19;9.60;99.90
41469;DHT22;27206;47.032;15.484;2023-11-21T11:24:18;9.60;99.90
41469;DHT22;27206;47.032;15.484;2023-11-21T11:27:03;9.60;99.90
41469;DHT22;27206;47.032;15.484;2023-11-21T11:29:41;9.50;99.90
41469;DHT22;27206;47.032;15.484;2023-11-21T11:35:06;9.40;99.90
41469;DHT22;27206;47.032;15.484;2023-11-21T11:37:33;9.50;99.90
41469;DHT22;27206;47.032;15.484;2023-11-21T11:39:59;9.40;99.90
41469;DHT22;27206;47.032;15.484;2023-11-21T11:42:26;9.50;99.90
41469;DHT22;27206;47.032;15.484;2023-11-21T11:44:52;9.50;99.90
41469;DHT22;27206;47.032;15.484;2023-11-21T11:47:25;9.50;99.90
41469;DHT22;27206;47.032;15.484;2023-11-21T11:55:08;9.60;99.90
41469;DHT22;27206;47.032;15.484;2023-11-21T11:57:38;9.60;99.90
41469;DHT22;27206;47.032;15.484;2023-11-21T12:02:51;9.60;99.90
41469;DHT22;27206;47.032;15.484;2023-11-21T12:05:19;9.60;99.90
41469;DHT22;27206;47.032;15.484;2023-11-21T12:10:15;9.60;99.90
41469;DHT22;27206;47.032;15.484;2023-11-21T12:12:53;9.60;99.90
41469;DHT22;27206;47.032;15.484;2023-11-21T12:15:19;9.50;99.90
41469;DHT22;27206;47.032;15.484;2023-11-21T12:17:46;9.60;99.90
41469;DHT22;27206;47.032;15.484;2023-11-21T12:20:13;9.60;99.90
41469;DHT22;27206;47.032;15.484;2023-11-21T12:22:47;9.70;99.90
41469;DHT22;27206;47.032;15.484;2023-11-21T12:25:35;9.70;99.90
41469;DHT22;27206;47.032;15.484;2023-11-21T12:28:02;9.50;99.90
41469;DHT22;27206;47.032;15.484;2023-11-21T12:30:34;9.60;99.90
41469;DHT22;27206;47.032;15.484;2023-11-21T12:33:01;9.60;99.90
41469;DHT22;27206;47.032;15.484;2023-11-21T12:35:29;9.60;99.90
41469;DHT22;27206;47.032;15.484;2023-11-21T12:37:56;9.70;99.90
41469;DHT22;27206;47.032;15.484;2023-11-21T12:40:25;9.70;99.90
41469;DHT22;27206;47.032;15.484;2023-11-21T12:42:55;9.70;99.90
41469;DHT22;27206;47.032;15.484;2023-11-21T12:45:23;9.70;99.90
41469;DHT22;27206;47.032;15.484;2023-11-21T12:47:55;9.80;99.90
41469;DHT22;27206;47.032;15.484;2023-11-21T12:50:23;9.80;99.90
41469;DHT22;27206;47.032;15.484;2023-11-21T12:52:52;9.90;99.90
41469;DHT22;27206;47.032;15.484;2023-11-21T12:55:21;9.80;99.90
41469;DHT22;27206;47.032;15.484;2023-11-21T12:57:54;9.80;99.90
41469;DHT22;27206;47.032;15.484;2023-11-21T13:00:27;9.70;99.90
41469;DHT22;27206;47.032;15.484;2023-11-21T13:02:57;9.70;99.90
41469;DHT22;27206;47.032;15.484;2023-11-21T13:05:32;9.70;99.90
41469;DHT22;27206;47.032;15.484;2023-11-21T13:08:00;9.70;99.90
41469;DHT22;27206;47.032;15.484;2023-11-21T13:10:29;9.70;99.90
41469;DHT22;27206;47.032;15.484;2023-11-21T13:12:57;9.70;99.90
41469;DHT22;27206;47.032;15.484;2023-11-21T13:15:24;9.60;99.90
41469;DHT22;27206;47.032;15.484;2023-11-21T13:17:50;9.70;99.90
41469;DHT22;27206;47.032;15.484;2023-11-21T13:20:17;9.60;99.90
41469;DHT22;27206;47.032;15.484;2023-11-21T13:23:09;9.70;99.90
41469;DHT22;27206;47.032;15.484;2023-11-21T13:25:37;9.60;99.90
41469;DHT22;27206;47.032;15.484;2023-11-21T13:28:04;9.70;99.90
41469;DHT22;27206;47.032;15.484;2023-11-21T13:30:30;9.80;99.90
41469;DHT22;27206;47.032;15.484;2023-11-21T13:33:03;9.80;99.90
41469;DHT22;27206;47.032;15.484;2023-11-21T13:35:32;9.80;99.90
41469;DHT22;27206;47.032;15.484;2023-11-21T13:38:11;9.70;99.90
41469;DHT22;27206;47.032;15.484;2023-11-21T13:40:38;9.80;99.90
41469;DHT22;27206;47.032;15.484;2023-11-21T13:43:17;9.70;99.90
41469;DHT22;27206;47.032;15.484;2023-11-21T13:45:48;9.70;99.90
41469;DHT22;27206;47.032;15.484;2023-11-21T13:48:17;9.70;99.90
41469;DHT22;27206;47.032;15.484;2023-11-21T13:50:51;9.70;99.90
41469;DHT22;27206;47.032;15.484;2023-11-21T13:53:36;9.70;99.90
41469;DHT22;27206;47.032;15.484;2023-11-21T13:56:03;9.70;99.90
41469;DHT22;27206;47.032;15.484;2023-11-21T13:58:29;9.70;99.90
41469;DHT22;27206;47.032;15.484;2023-11-21T14:01:13;9.70;99.90
41469;DHT22;27206;47.032;15.484;2023-11-21T14:04:03;9.70;99.90
41469;DHT22;27206;47.032;15.484;2023-11-21T14:06:49;9.60;99.90
41469;DHT22;27206;47.032;15.484;2023-11-21T14:09:22;9.50;99.90
41469;DHT22;27206;47.032;15.484;2023-11-21T14:11:50;9.50;99.90
41469;DHT22;27206;47.032;15.484;2023-11-21T14:14:18;9.40;99.90
41469;DHT22;27206;47.032;15.484;2023-11-21T14:16:44;9.40;99.90
41469;DHT22;27206;47.032;15.484;2023-11-21T14:19:10;9.40;99.90
41469;DHT22;27206;47.032;15.484;2023-11-21T14:21:45;9.40;99.90
41469;DHT22;27206;47.032;15.484;2023-11-21T14:24:14;9.40;99.90
41469;DHT22;27206;47.032;15.484;2023-11-21T14:26:45;9.30;99.90
41469;DHT22;27206;47.032;15.484;2023-11-21T14:29:15;9.30;99.90
41469;DHT22;27206;47.032;15.484;2023-11-21T14:31:45;9.20;99.90
41469;DHT22;27206;47.032;15.484;2023-11-21T14:34:11;9.10;99.90
41469;DHT22;27206;47.032;15.484;2023-11-21T14:36:38;9.20;99.90
41469;DHT22;27206;47.032;15.484;2023-11-21T14:39:13;9.20;99.90
41469;DHT22;27206;47.032;15.484;2023-11-21T14:42:02;9.10;99.90
41469;DHT22;27206;47.032;15.484;2023-11-21T14:44:28;9.00;99.90
41469;DHT22;27206;47.032;15.484;2023-11-21T14:46:58;8.90;99.90
41469;DHT22;27206;47.032;15.484;2023-11-21T14:49:24;8.80;99.90
41469;DHT22;27206;47.032;15.484;2023-11-21T14:51:54;8.70;99.90
41469;DHT22;27206;47.032;15.484;2023-11-21T14:54:30;8.70;99.90
41469;DHT22;27206;47.032;15.484;2023-11-21T14:57:13;8.60;99.90
41469;DHT22;27206;47.032;15.484;2023-11-21T14:59:45;8.60;99.90
41469;DHT22;27206;47.032;15.484;2023-11-21T15:02:23;8.50;99.90
41469;DHT22;27206;47.032;15.484;2023-11-21T15:05:09;8.40;99.90
41469;DHT22;27206;47.032;15.484;2023-11-21T15:07:40;8.30;99.90
41469;DHT22;27206;47.032;15.484;2023-11-21T15:10:07;8.30;99.90
41469;DHT22;27206;47.032;15.484;2023-11-21T15:12:42;8.20;99.90
41469;DHT22;27206;47.032;15.484;2023-11-21T15:15:09;8.20;99.90
41469;DHT22;27206;47.032;15.484;2023-11-21T15:17:36;8.20;99.90
41469;DHT22;27206;47.032;15.484;2023-11-21T15:20:03;8.00;99.90
41469;DHT22;27206;47.032;15.484;2023-11-21T15:22:32;8.10;99.90
41469;DHT22;27206;47.032;15.484;2023-11-21T15:24:58;8.10;99.90
41469;DHT22;27206;47.032;15.484;2023-11-21T15:27:24;8.10;99.90
41469;DHT22;27206;47.032;15.484;2023-11-21T15:29:50;8.10;99.90
41469;DHT22;27206;47.032;15.484;2023-11-21T15:32:15;8.20;99.90
41469;DHT22;27206;47.032;15.484;2023-11-21T15:34:41;8.20;99.90
41469;DHT22;27206;47.032;15.484;2023-11-21T15:37:08;8.20;99.90
41469;DHT22;27206;47.032;15.484;2023-11-21T15:39:37;8.10;99.90
41469;DHT22;27206;47.032;15.484;2023-11-21T15:42:04;8.10;99.90
41469;DHT22;27206;47.032;15.484;2023-11-21T15:44:33;8.10;99.90
41469;DHT22;27206;47.032;15.484;2023-11-21T15:46:59;8.10;99.90